createdAt,value
2022-12-15T00:02:18.861Z,95715.59
2022-12-15T00:05:04.317Z,95714.16
2022-12-15T00:07:49.667Z,95713.47
2022-12-15T00:10:35.146Z,95716.16
2022-12-15T00:13:20.452Z,95713.47
2022-12-15T00:16:07.495Z,95710.03
2022-12-15T00:18:52.886Z,95708.75
2022-12-15T00:21:38.137Z,95701.91
2022-12-15T00:24:23.945Z,95703.16
2022-12-15T00:27:09.322Z,95702.47
2022-12-15T00:29:54.788Z,95712.59
2022-12-15T00:32:41.250Z,95707.88
2022-12-15T00:35:27.463Z,95704.63
2022-12-15T00:38:12.967Z,95711.19
2022-12-15T00:40:39.705Z,95715.34
2022-12-15T00:43:06.404Z,95710.69
2022-12-15T00:45:51.365Z,95709.00
2022-12-15T00:48:18.127Z,95720.94
2022-12-15T00:50:53.889Z,95717.53
2022-12-15T00:53:40.449Z,95732.38
2022-12-15T00:56:26.313Z,95735.66
2022-12-15T00:59:12.217Z,95739.81
2022-12-15T01:01:57.740Z,95737.50
2022-12-15T01:04:43.404Z,95741.03
2022-12-15T01:07:28.670Z,95745.88
2022-12-15T01:10:13.937Z,95732.31
2022-12-15T01:13:05.421Z,95727.75
2022-12-15T01:15:55.229Z,95733.91
2022-12-15T01:18:41.042Z,95734.59
2022-12-15T01:21:08.939Z,95743.44
2022-12-15T01:23:36.182Z,95734.75
2022-12-15T01:26:03.648Z,95724.63
2022-12-15T01:28:30.387Z,95731.47
2022-12-15T01:30:57.219Z,95742.31
2022-12-15T01:33:24.145Z,95737.59
2022-12-15T01:35:58.942Z,95743.03
2022-12-15T01:38:27.204Z,95745.84
2022-12-15T01:41:06.879Z,95751.28
2022-12-15T01:43:36.118Z,95749.28
2022-12-15T01:46:11.828Z,95757.41
2022-12-15T01:48:40.888Z,95760.72
2022-12-15T01:51:13.932Z,95771.03
2022-12-15T01:54:08.738Z,95755.63
2022-12-15T01:56:40.278Z,95762.22
2022-12-15T01:59:09.862Z,95762.91
2022-12-15T02:01:36.901Z,95764.06
2022-12-15T02:04:03.855Z,95778.50
2022-12-15T02:06:30.735Z,95777.63
2022-12-15T02:08:59.078Z,95769.50
2022-12-15T02:11:57.975Z,95775.50
2022-12-15T02:14:32.676Z,95772.94
2022-12-15T02:17:11.485Z,95785.34
2022-12-15T02:19:50.126Z,95790.06
2022-12-15T02:22:37.237Z,95790.22
2022-12-15T02:25:17.376Z,95786.75
2022-12-15T02:28:06.911Z,95782.22
2022-12-15T02:31:12.366Z,95779.09
2022-12-15T02:33:49.789Z,95785.50
2022-12-15T02:36:26.171Z,95783.19
2022-12-15T02:38:52.981Z,95793.75
2022-12-15T02:41:43.950Z,95794.75
2022-12-15T02:44:14.352Z,95791.44
2022-12-15T02:46:56.226Z,95790.16
2022-12-15T02:49:35.542Z,95771.88
2022-12-15T02:52:20.537Z,95781.59
2022-12-15T02:55:10.530Z,95781.13
2022-12-15T02:57:56.039Z,95781.88
2022-12-15T03:00:23.118Z,95775.72
2022-12-15T03:02:53.901Z,95785.13
2022-12-15T03:05:22.130Z,95779.28
2022-12-15T03:07:50.870Z,95774.56
2022-12-15T03:10:18.086Z,95780.00
2022-12-15T03:12:45.297Z,95783.41
2022-12-15T03:15:12.347Z,95776.69
2022-12-15T03:17:39.266Z,95775.28
2022-12-15T03:20:06.406Z,95782.84
2022-12-15T03:22:33.212Z,95783.56
2022-12-15T03:24:59.927Z,95780.84
2022-12-15T03:27:26.816Z,95782.84
2022-12-15T03:29:53.513Z,95790.13
2022-12-15T03:32:20.256Z,95788.31
2022-12-15T03:34:47.015Z,95792.75
2022-12-15T03:37:13.762Z,95799.75
2022-12-15T03:39:40.430Z,95787.50
2022-12-15T03:42:07.180Z,95782.22
2022-12-15T03:44:33.881Z,95788.63
2022-12-15T03:47:03.495Z,95793.88
2022-12-15T03:49:30.734Z,95786.16
2022-12-15T03:51:57.554Z,95786.31
2022-12-15T03:54:24.320Z,95782.31
2022-12-15T03:56:56.765Z,95791.72
2022-12-15T03:59:25.005Z,95782.31
2022-12-15T04:01:51.787Z,95772.75
2022-12-15T04:04:18.649Z,95771.47
2022-12-15T04:06:45.392Z,95777.00
2022-12-15T04:09:12.172Z,95774.28
2022-12-15T04:11:38.884Z,95777.00
2022-12-15T04:14:05.682Z,95779.00
2022-12-15T04:16:32.374Z,95779.00
2022-12-15T04:19:25.264Z,95789.84
2022-12-15T04:21:52.022Z,95779.75
2022-12-15T04:24:37.305Z,95780.31
2022-12-15T04:27:22.513Z,95774.91
2022-12-15T04:30:07.594Z,95779.19
2022-12-15T04:32:52.809Z,95767.75
2022-12-15T04:35:38.302Z,95765.16
2022-12-15T04:38:23.605Z,95764.47
2022-12-15T04:41:08.820Z,95767.88
2022-12-15T04:43:54.135Z,95763.47
2022-12-15T04:46:39.536Z,95773.91
2022-12-15T04:49:24.733Z,95768.09
2022-12-15T04:52:09.782Z,95778.66
2022-12-15T04:54:55.137Z,95779.78
2022-12-15T04:57:40.542Z,95775.38
2022-12-15T05:00:26.485Z,95768.22
2022-12-15T05:03:16.658Z,95778.50
2022-12-15T05:06:03.794Z,95770.50
2022-12-15T05:08:49.995Z,95775.19
2022-12-15T05:11:35.919Z,95780.78
2022-12-15T05:14:21.354Z,95786.63
2022-12-15T05:17:06.681Z,95791.94
2022-12-15T05:19:52.162Z,95797.19
2022-12-15T05:22:37.575Z,95805.59
2022-12-15T05:25:23.409Z,95811.31
2022-12-15T05:28:08.657Z,95806.31
2022-12-15T05:30:54.084Z,95812.59
2022-12-15T05:33:21.085Z,95803.88
2022-12-15T05:35:47.781Z,95811.50
2022-12-15T05:38:14.501Z,95812.88
2022-12-15T05:40:41.370Z,95809.03
2022-12-15T05:43:08.380Z,95808.13
2022-12-15T05:45:35.215Z,95813.28
2022-12-15T05:48:01.913Z,95807.97
2022-12-15T05:50:28.588Z,95814.19
2022-12-15T05:52:58.498Z,95811.06
2022-12-15T05:55:25.354Z,95800.38
2022-12-15T05:57:55.509Z,95798.81
2022-12-15T06:00:22.698Z,95798.81
2022-12-15T06:02:50.062Z,95786.63
2022-12-15T06:05:17.430Z,95777.41
2022-12-15T06:07:44.105Z,95767.94
2022-12-15T06:10:11.672Z,95780.75
2022-12-15T06:12:38.347Z,95781.25
2022-12-15T06:15:06.163Z,95793.16
2022-12-15T06:17:32.914Z,95790.31
2022-12-15T06:19:59.764Z,95787.75
2022-12-15T06:22:28.863Z,95777.41
2022-12-15T06:24:55.632Z,95774.63
2022-12-15T06:27:22.590Z,95778.50
2022-12-15T06:29:49.670Z,95780.81
2022-12-15T06:32:16.534Z,95779.84
2022-12-15T06:34:43.429Z,95777.44
2022-12-15T06:37:10.212Z,95777.28
2022-12-15T06:39:36.899Z,95770.47
2022-12-15T06:42:03.888Z,95780.00
2022-12-15T06:44:30.621Z,95790.91
2022-12-15T06:46:57.413Z,95791.94
2022-12-15T06:49:24.265Z,95795.53
2022-12-15T06:51:51.008Z,95802.69
2022-12-15T06:54:17.737Z,95803.84
2022-12-15T06:56:44.531Z,95801.59
2022-12-15T06:59:11.919Z,95803.34
2022-12-15T07:01:38.808Z,95794.66
2022-12-15T07:04:06.211Z,95789.84
2022-12-15T07:06:37.708Z,95793.66
2022-12-15T07:09:07.646Z,95780.13
2022-12-15T07:11:35.997Z,95778.88
2022-12-15T07:14:03.167Z,95776.19
2022-12-15T07:16:31.269Z,95781.00
2022-12-15T07:18:58.217Z,95772.34
2022-12-15T07:21:24.898Z,95780.97
2022-12-15T07:23:55.384Z,95791.88
2022-12-15T07:26:23.823Z,95797.22
2022-12-15T07:28:50.693Z,95781.66
2022-12-15T07:31:17.990Z,95780.53
2022-12-15T07:33:44.928Z,95788.31
2022-12-15T07:36:11.722Z,95797.16
2022-12-15T07:38:38.665Z,95803.28
2022-12-15T07:41:08.013Z,95805.56
2022-12-15T07:43:35.908Z,95799.53
2022-12-15T07:46:04.147Z,95797.16
2022-12-15T07:48:31.090Z,95809.97
2022-12-15T07:51:07.247Z,95815.50
2022-12-15T07:53:36.485Z,95817.25
2022-12-15T07:56:07.989Z,95822.41
2022-12-15T07:58:36.605Z,95811.75
2022-12-15T08:01:06.504Z,95810.09
2022-12-15T08:03:34.236Z,95818.66
2022-12-15T08:06:05.600Z,95819.22
2022-12-15T08:08:33.930Z,95818.44
2022-12-15T08:11:08.750Z,95819.59
2022-12-15T08:16:23.060Z,95818.81
2022-12-15T08:18:49.889Z,95825.97
2022-12-15T08:21:16.879Z,95827.09
2022-12-15T08:23:43.830Z,95832.88
2022-12-15T08:26:13.206Z,95832.34
2022-12-15T08:28:41.116Z,95824.47
2022-12-15T08:31:18.979Z,95825.66
2022-12-15T08:33:48.095Z,95830.75
2022-12-15T08:36:17.178Z,95827.63
2022-12-15T08:38:45.526Z,95837.00
2022-12-15T08:41:20.730Z,95834.28
2022-12-15T08:43:54.459Z,95836.28
2022-12-15T08:46:28.227Z,95844.28
2022-12-15T08:48:55.605Z,95846.28
2022-12-15T08:51:23.544Z,95850.81
2022-12-15T08:53:50.549Z,95848.38
2022-12-15T08:56:22.224Z,95849.78
2022-12-15T08:58:50.875Z,95846.69
2022-12-15T09:01:24.326Z,95854.69
2022-12-15T09:03:53.952Z,95861.34
2022-12-15T09:06:29.756Z,95854.44
2022-12-15T09:08:58.366Z,95855.38
2022-12-15T09:11:26.113Z,95865.06
2022-12-15T09:13:53.293Z,95867.97
2022-12-15T09:16:21.552Z,95856.91
2022-12-15T09:18:51.624Z,95858.81
2022-12-15T09:21:22.368Z,95857.44
2022-12-15T09:23:51.681Z,95865.03
2022-12-15T09:26:20.276Z,95860.16
2022-12-15T09:28:50.257Z,95851.59
2022-12-15T09:31:22.132Z,95859.03
2022-12-15T09:33:50.578Z,95864.94
2022-12-15T09:36:17.318Z,95863.78
2022-12-15T09:38:44.221Z,95855.09
2022-12-15T09:41:13.894Z,95828.88
2022-12-15T09:43:47.527Z,95836.00
2022-12-15T09:46:37.795Z,95831.00
2022-12-15T09:49:06.376Z,95838.69
2022-12-15T09:51:44.853Z,95835.41
2022-12-15T09:54:11.566Z,95848.69
2022-12-15T09:56:42.844Z,95841.00
2022-12-15T09:59:16.187Z,95853.25
2022-12-15T10:01:46.126Z,95853.84
2022-12-15T10:04:31.794Z,95851.69
2022-12-15T10:07:00.760Z,95857.81
2022-12-15T10:09:30.594Z,95857.53
2022-12-15T10:12:17.435Z,95851.69
2022-12-15T10:14:51.662Z,95847.09
2022-12-15T10:17:25.086Z,95850.84
2022-12-15T10:20:06.770Z,95856.56
2022-12-15T10:22:34.487Z,95834.84
2022-12-15T10:25:11.318Z,95826.25
2022-12-15T10:27:53.485Z,95818.41
2022-12-15T10:30:21.096Z,95813.69
2022-12-15T10:32:51.894Z,95816.56
2022-12-15T10:35:23.312Z,95815.16
2022-12-15T10:37:50.266Z,95812.63
2022-12-15T10:40:20.820Z,95806.94
2022-12-15T10:42:50.982Z,95810.19
2022-12-15T10:45:30.643Z,95811.63
2022-12-15T10:47:59.126Z,95802.06
2022-12-15T10:50:25.836Z,95794.06
2022-12-15T10:52:52.513Z,95792.22
2022-12-15T10:55:32.643Z,95793.06
2022-12-15T10:58:00.152Z,95789.19
2022-12-15T11:00:28.503Z,95780.63
2022-12-15T11:02:55.720Z,95777.91
2022-12-15T11:05:22.506Z,95773.47
2022-12-15T11:08:10.775Z,95772.03
2022-12-15T11:10:57.886Z,95774.16
2022-12-15T11:13:27.340Z,95770.22
2022-12-15T11:15:57.991Z,95757.06
2022-12-15T11:18:30.692Z,95760.03
2022-12-15T11:21:05.042Z,95756.56
2022-12-15T11:24:01.789Z,95726.72
2022-12-15T11:26:49.232Z,95725.41
2022-12-15T11:29:30.982Z,95727.91
2022-12-15T11:32:01.525Z,95721.84
2022-12-15T11:34:42.905Z,95720.34
2022-12-15T11:37:24.687Z,95716.03
2022-12-15T11:39:54.115Z,95715.81
2022-12-15T11:42:23.421Z,95712.41
2022-12-15T11:44:50.130Z,95714.06
2022-12-15T11:47:21.794Z,95716.28
2022-12-15T11:49:59.801Z,95718.31
2022-12-15T11:52:26.446Z,95711.78
2022-12-15T11:54:57.647Z,95711.06
2022-12-15T11:57:39.293Z,95713.66
2022-12-15T12:00:08.995Z,95701.38
2022-12-15T12:02:59.736Z,95702.78
2022-12-15T12:05:29.437Z,95699.59
2022-12-15T12:07:59.942Z,95692.94
2022-12-15T12:10:26.614Z,95689.50
2022-12-15T12:12:59.110Z,95687.91
2022-12-15T12:15:25.757Z,95675.50
2022-12-15T12:17:53.504Z,95670.16
2022-12-15T12:20:21.923Z,95666.13
2022-12-15T12:22:54.626Z,95667.19
2022-12-15T12:25:22.310Z,95659.47
2022-12-15T12:27:54.917Z,95659.75
2022-12-15T12:30:23.944Z,95654.31
2022-12-15T12:32:59.821Z,95648.13
2022-12-15T12:35:33.380Z,95641.97
2022-12-15T12:38:04.013Z,95640.09
2022-12-15T12:40:43.068Z,95634.91
2022-12-15T12:43:14.177Z,95631.69
2022-12-15T12:45:51.589Z,95620.00
2022-12-15T12:48:30.398Z,95620.13
2022-12-15T12:51:15.546Z,95607.53
2022-12-15T12:53:42.177Z,95610.34
2022-12-15T12:56:28.069Z,95602.38
2022-12-15T12:58:54.696Z,95598.56
2022-12-15T13:01:31.063Z,95594.34
2022-12-15T13:04:07.542Z,95579.44
2022-12-15T13:06:34.200Z,95571.22
2022-12-15T13:09:21.032Z,95566.63
2022-12-15T13:11:53.882Z,95560.22
2022-12-15T13:14:26.048Z,95559.50
2022-12-15T13:17:28.725Z,95556.66
2022-12-15T13:19:58.940Z,95552.28
2022-12-15T13:22:35.742Z,95549.22
2022-12-15T13:25:02.917Z,95545.75
2022-12-15T13:27:36.087Z,95546.72
2022-12-15T13:30:15.297Z,95550.13
2022-12-15T13:32:44.389Z,95551.88
2022-12-15T13:35:12.336Z,95552.72
2022-12-15T13:37:45.164Z,95565.69
2022-12-15T13:40:35.701Z,95564.41
2022-12-15T13:43:05.100Z,95573.84
2022-12-15T13:45:37.574Z,95574.88
2022-12-15T13:48:20.641Z,95574.16
2022-12-15T13:51:00.113Z,95577.31
2022-12-15T13:53:28.002Z,95582.50
2022-12-15T13:56:18.724Z,95576.81
2022-12-15T13:58:49.039Z,95576.69
2022-12-15T14:01:34.130Z,95578.56
2022-12-15T14:04:04.090Z,95582.56
2022-12-15T14:06:34.700Z,95575.38
2022-12-15T14:09:01.336Z,95574.78
2022-12-15T14:11:52.075Z,95577.00
2022-12-15T14:14:20.993Z,95574.44
2022-12-15T14:16:52.700Z,95571.25
2022-12-15T14:19:19.737Z,95568.16
2022-12-15T14:21:55.304Z,95569.63
2022-12-15T14:24:39.243Z,95569.94
2022-12-15T14:27:06.943Z,95565.63
2022-12-15T14:29:33.679Z,95562.19
2022-12-15T14:32:00.784Z,95553.63
2022-12-15T14:34:37.097Z,95553.38
2022-12-15T14:37:07.840Z,95551.28
2022-12-15T14:39:36.459Z,95560.44
2022-12-15T14:42:05.208Z,95555.88
2022-12-15T14:44:41.848Z,95565.59
2022-12-15T14:47:32.632Z,95568.75
2022-12-15T14:50:01.226Z,95573.00
2022-12-15T14:52:44.581Z,95574.84
2022-12-15T14:55:33.490Z,95569.59
2022-12-15T14:58:01.193Z,95573.72
2022-12-15T15:00:29.850Z,95567.72
2022-12-15T15:03:18.439Z,95568.16
2022-12-15T15:05:57.310Z,95566.91
2022-12-15T15:08:36.367Z,95567.22
2022-12-15T15:11:25.322Z,95567.50
2022-12-15T15:13:59.089Z,95576.75
2022-12-15T15:16:26.306Z,95572.34
2022-12-15T15:18:55.179Z,95579.75
2022-12-15T15:21:24.691Z,95577.91
2022-12-15T15:24:24.973Z,95571.63
2022-12-15T15:26:52.811Z,95569.03
2022-12-15T15:29:39.255Z,95568.47
2022-12-15T15:32:20.626Z,95570.47
2022-12-15T15:34:47.878Z,95573.31
2022-12-15T15:37:23.535Z,95565.19
2022-12-15T15:39:51.949Z,95563.91
2022-12-15T15:42:18.937Z,95569.47
2022-12-15T15:44:45.936Z,95575.00
2022-12-15T15:47:25.863Z,95581.00
2022-12-15T15:49:54.823Z,95576.22
2022-12-15T15:52:21.990Z,95581.66
2022-12-15T15:54:48.770Z,95583.75
2022-12-15T15:57:20.544Z,95586.28
2022-12-15T15:59:48.317Z,95588.09
2022-12-15T16:02:15.607Z,95581.78
2022-12-15T16:04:43.819Z,95591.75
2022-12-15T16:07:24.461Z,95591.44
2022-12-15T16:09:52.474Z,95592.44
2022-12-15T16:12:38.112Z,95594.13
2022-12-15T16:15:34.163Z,95588.63
2022-12-15T16:18:01.029Z,95593.59
2022-12-15T16:20:29.445Z,95599.28
2022-12-15T16:23:01.902Z,95592.69
2022-12-15T16:25:50.875Z,95594.38
2022-12-15T16:28:20.575Z,95595.94
2022-12-15T16:30:47.808Z,95601.63
2022-12-15T16:33:15.087Z,95592.31
2022-12-15T16:35:43.321Z,95593.16
2022-12-15T16:38:16.223Z,95593.41
2022-12-15T16:40:43.014Z,95588.81
2022-12-15T16:43:22.474Z,95593.66
2022-12-15T16:45:50.682Z,95583.66
2022-12-15T16:48:22.806Z,95580.34
2022-12-15T16:50:55.218Z,95585.94
2022-12-15T16:53:30.877Z,95577.19
2022-12-15T16:56:00.380Z,95574.59
2022-12-15T16:58:29.185Z,95572.03
2022-12-15T17:00:56.450Z,95568.56
2022-12-15T17:03:26.147Z,95576.16
2022-12-15T17:05:57.243Z,95569.44
2022-12-15T17:08:26.433Z,95570.72
2022-12-15T17:10:53.614Z,95560.44
2022-12-15T17:13:28.707Z,95561.63
2022-12-15T17:16:00.719Z,95562.31
2022-12-15T17:18:28.391Z,95554.63
2022-12-15T17:21:03.974Z,95551.69
2022-12-15T17:23:31.594Z,95544.69
2022-12-15T17:26:22.516Z,95542.78
2022-12-15T17:28:47.863Z,95550.19
2022-12-15T17:31:18.474Z,95551.63
2022-12-15T17:33:45.243Z,95553.09
2022-12-15T17:36:19.320Z,95542.59
2022-12-15T17:38:46.641Z,95543.75
2022-12-15T17:41:35.056Z,95541.34
2022-12-15T17:46:48.867Z,95543.03
2022-12-15T17:49:15.694Z,95549.94
2022-12-15T17:51:44.127Z,95548.91
2022-12-15T17:54:18.419Z,95553.19
2022-12-15T17:56:47.166Z,95556.94
2022-12-15T17:59:15.939Z,95549.63
2022-12-15T18:01:43.115Z,95554.59
2022-12-15T18:04:10.436Z,95556.59
2022-12-15T18:06:38.852Z,95554.47
2022-12-15T18:09:07.183Z,95562.63
2022-12-15T18:11:33.911Z,95562.34
2022-12-15T18:14:00.774Z,95561.69
2022-12-15T18:16:27.575Z,95568.16
2022-12-15T18:18:54.401Z,95568.59
2022-12-15T18:21:21.352Z,95565.03
2022-12-15T18:23:48.102Z,95571.44
2022-12-15T18:26:14.943Z,95576.41
2022-12-15T18:28:41.829Z,95569.94
2022-12-15T18:31:28.043Z,95574.53
2022-12-15T18:34:04.073Z,95582.88
2022-12-15T18:36:40.252Z,95573.06
2022-12-15T18:39:19.676Z,95580.16
2022-12-15T18:41:47.217Z,95570.75
2022-12-15T18:44:28.768Z,95572.41
2022-12-15T18:46:55.714Z,95573.41
2022-12-15T18:49:23.470Z,95568.53
2022-12-15T18:51:50.500Z,95562.28
2022-12-15T18:54:19.749Z,95566.53
2022-12-15T18:56:46.565Z,95559.25
2022-12-15T18:59:17.567Z,95564.53
2022-12-15T19:01:46.730Z,95556.53
2022-12-15T19:04:14.270Z,95560.56
2022-12-15T19:06:41.214Z,95574.28
2022-12-15T19:09:13.560Z,95571.06
2022-12-15T19:11:40.649Z,95573.63
2022-12-15T19:14:36.553Z,95579.03
2022-12-15T19:17:21.865Z,95574.78
2022-12-15T19:20:07.205Z,95572.41
2022-12-15T19:22:34.102Z,95575.41
2022-12-15T19:25:02.125Z,95583.09
2022-12-15T19:27:29.038Z,95580.38
2022-12-15T19:29:57.269Z,95567.41
2022-12-15T19:32:26.694Z,95568.25
2022-12-15T19:34:53.415Z,95564.50
2022-12-15T19:37:25.478Z,95568.91
2022-12-15T19:39:53.134Z,95572.75
2022-12-15T19:42:21.765Z,95572.28
2022-12-15T19:44:48.576Z,95582.41
2022-12-15T19:47:15.641Z,95589.56
2022-12-15T19:49:43.130Z,95589.44
2022-12-15T19:52:16.933Z,95591.56
2022-12-15T19:54:45.580Z,95585.16
2022-12-15T19:57:17.901Z,95588.59
2022-12-15T19:59:44.910Z,95591.63
2022-12-15T20:02:24.662Z,95587.63
2022-12-15T20:05:00.360Z,95600.16
2022-12-15T20:07:32.870Z,95602.41
2022-12-15T20:10:00.348Z,95604.41
2022-12-15T20:12:27.500Z,95605.13
2022-12-15T20:14:54.221Z,95607.97
2022-12-15T20:17:20.874Z,95615.53
2022-12-15T20:19:47.624Z,95617.81
2022-12-15T20:22:16.633Z,95618.50
2022-12-15T20:24:44.407Z,95626.06
2022-12-15T20:27:19.217Z,95630.91
2022-12-15T20:29:46.147Z,95625.63
2022-12-15T20:32:18.577Z,95627.63
2022-12-15T20:34:45.448Z,95626.88
2022-12-15T20:37:21.467Z,95623.47
2022-12-15T20:39:52.590Z,95630.47
2022-12-15T20:42:22.882Z,95626.31
2022-12-15T20:44:49.988Z,95626.31
2022-12-15T20:47:23.047Z,95633.03
2022-12-15T20:49:52.833Z,95633.34
2022-12-15T20:52:28.215Z,95632.69
2022-12-15T20:54:56.552Z,95633.00
2022-12-15T20:57:23.257Z,95628.44
2022-12-15T20:59:50.115Z,95633.88
2022-12-15T21:02:22.759Z,95642.19
2022-12-15T21:04:50.253Z,95647.91
2022-12-15T21:07:17.012Z,95647.94
2022-12-15T21:09:43.849Z,95647.53
2022-12-15T21:12:30.345Z,95645.94
2022-12-15T21:15:05.015Z,95637.97
2022-12-15T21:17:36.253Z,95647.50
2022-12-15T21:20:05.979Z,95650.75
2022-12-15T21:22:32.666Z,95643.00
2022-12-15T21:25:00.468Z,95645.28
2022-12-15T21:27:27.239Z,95644.59
2022-12-15T21:29:56.921Z,95652.72
2022-12-15T21:32:25.515Z,95661.84
2022-12-15T21:34:52.272Z,95661.44
2022-12-15T21:37:27.465Z,95660.59
2022-12-15T21:39:54.704Z,95658.47
2022-12-15T21:42:21.773Z,95670.00
2022-12-15T21:44:48.532Z,95665.03
2022-12-15T21:47:46.727Z,95663.88
2022-12-15T21:50:14.640Z,95662.28
2022-12-15T21:52:41.597Z,95673.41
2022-12-15T21:55:26.926Z,95666.69
2022-12-15T21:57:54.517Z,95668.25
2022-12-15T22:00:23.217Z,95670.28
2022-12-15T22:02:51.509Z,95679.53
2022-12-15T22:05:30.215Z,95682.13
2022-12-15T22:08:08.834Z,95678.44
2022-12-15T22:10:35.600Z,95679.28
2022-12-15T22:13:03.128Z,95681.44
2022-12-15T22:15:30.172Z,95685.13
2022-12-15T22:17:56.870Z,95695.69
2022-12-15T22:20:24.556Z,95689.97
2022-12-15T22:22:51.440Z,95691.13
2022-12-15T22:25:21.001Z,95691.69
2022-12-15T22:27:48.009Z,95700.13
2022-12-15T22:30:17.966Z,95694.81
2022-12-15T22:32:45.974Z,95695.41
2022-12-15T22:35:20.067Z,95692.28
2022-12-15T22:37:49.457Z,95685.00
2022-12-15T22:40:17.458Z,95690.13
2022-12-15T22:42:46.701Z,95695.53
2022-12-15T22:45:18.137Z,95688.84
2022-12-15T22:47:47.193Z,95700.53
2022-12-15T22:50:20.230Z,95694.53
2022-12-15T22:52:48.010Z,95699.50
2022-12-15T22:55:20.521Z,95700.22
2022-12-15T22:57:58.717Z,95696.38
2022-12-15T23:00:26.130Z,95697.22
2022-12-15T23:02:53.004Z,95686.38
2022-12-15T23:05:20.208Z,95689.78
2022-12-15T23:07:47.016Z,95697.94
2022-12-15T23:10:34.214Z,95697.94
2022-12-15T23:13:00.916Z,95696.66
2022-12-15T23:15:46.595Z,95701.34
2022-12-15T23:18:13.695Z,95708.75
2022-12-15T23:20:40.402Z,95710.06
2022-12-15T23:23:08.377Z,95703.50
2022-12-15T23:25:35.022Z,95723.91
2022-12-15T23:28:01.898Z,95721.78
2022-12-15T23:30:28.762Z,95725.19
2022-12-15T23:32:55.670Z,95723.91
2022-12-15T23:35:22.658Z,95723.78
2022-12-15T23:37:49.481Z,95728.47
2022-12-15T23:40:22.012Z,95735.16
2022-12-15T23:42:49.637Z,95738.59
2022-12-15T23:45:17.713Z,95734.19
2022-12-15T23:47:44.456Z,95744.47
2022-12-15T23:50:11.257Z,95747.47
2022-12-15T23:52:38.025Z,95748.88
2022-12-15T23:55:05.082Z,95743.34
2022-12-15T23:57:31.977Z,95744.03
2022-12-15T23:59:58.695Z,95746.31
